Time;durP1;ratioP1;P1;durP2;ratioP2;P2;SDS_P1;SDS_P2;PMS_P1;PMS_P2;Temp;Humidity;BMP_temperature;BMP_pressure;BME280_temperature;BME280_humidity;BME280_pressure;Samples;Min_cycle;Max_cycle;Signal;HPM_P1;HPM_P2
2023/01/27 00:00:41;;;;;;;0.82;0.82;;;;;;;;;;5070529;28;20029;-78
2023/01/27 00:03:10;;;;;;;1.48;1.00;;;;;;;;;;5070146;28;20029;-78
2023/01/27 00:05:35;;;;;;;1.50;0.63;;;;;;;;;;5070393;28;20036;-78
2023/01/27 00:08:01;;;;;;;0.20;0.20;;;;;;;;;;5069778;28;20184;-78
2023/01/27 00:10:26;;;;;;;0.10;0.10;;;;;;;;;;5070052;28;20390;-77
2023/01/27 00:15:35;;;;;;;13.05;3.42;;;;;;;;;;5056751;28;20449;-78
2023/01/27 00:18:01;;;;;;;0.77;0.77;;;;;;;;;;5063513;28;20107;-79
2023/01/27 00:26:05;;;;;;;0.65;0.65;;;;;;;;;;5073395;28;20040;-77
2023/01/27 00:28:31;;;;;;;0.47;0.47;;;;;;;;;;5073853;28;20028;-76
2023/01/27 00:30:57;;;;;;;0.10;0.10;;;;;;;;;;5073738;28;20035;-76
2023/01/27 00:33:26;;;;;;;1.65;0.88;;;;;;;;;;5039267;28;20027;-77
2023/01/27 00:36:07;;;;;;;1.97;1.63;;;;;;;;;;5065935;28;20029;-77
2023/01/27 00:38:33;;;;;;;1.60;1.25;;;;;;;;;;5052927;28;20035;-77
2023/01/27 00:41:14;;;;;;;2.00;1.90;;;;;;;;;;5055660;28;20029;-77
2023/01/27 00:43:40;;;;;;;0.10;0.10;;;;;;;;;;5073721;28;20089;-77
2023/01/27 00:46:05;;;;;;;0.10;0.10;;;;;;;;;;5038588;28;20040;-77
2023/01/27 00:48:31;;;;;;;0.10;0.10;;;;;;;;;;5054807;28;20166;-77
2023/01/27 00:50:57;;;;;;;0.10;0.10;;;;;;;;;;5053861;28;20062;-77
2023/01/27 00:53:22;;;;;;;0.20;0.20;;;;;;;;;;5053223;28;20029;-77
2023/01/27 00:55:48;;;;;;;0.10;0.10;;;;;;;;;;5035739;28;20473;-76
2023/01/27 00:58:13;;;;;;;0.10;0.10;;;;;;;;;;5049257;28;20035;-76
2023/01/27 01:00:39;;;;;;;0.17;0.17;;;;;;;;;;5073275;28;20376;-76
2023/01/27 01:03:04;;;;;;;0.10;0.10;;;;;;;;;;5073209;28;20032;-81
2023/01/27 01:05:29;;;;;;;0.30;0.28;;;;;;;;;;5073161;28;20032;-79
2023/01/27 01:07:55;;;;;;;0.10;0.10;;;;;;;;;;5072938;28;20079;-80
2023/01/27 01:10:20;;;;;;;0.00;0.00;;;;;;;;;;5055415;28;20021;-81
2023/01/27 01:12:46;;;;;;;0.10;0.10;;;;;;;;;;5073447;28;20032;-81
2023/01/27 01:15:11;;;;;;;0.10;0.10;;;;;;;;;;5072940;28;20033;-80
2023/01/27 01:17:36;;;;;;;0.08;0.08;;;;;;;;;;5054918;28;20033;-80
2023/01/27 01:20:02;;;;;;;0.57;0.57;;;;;;;;;;5055168;28;20028;-80
2023/01/27 01:22:27;;;;;;;0.10;0.10;;;;;;;;;;5054694;28;20426;-80
2023/01/27 01:24:53;;;;;;;0.10;0.10;;;;;;;;;;5055306;28;20063;-79
2023/01/27 01:27:18;;;;;;;1.17;1.00;;;;;;;;;;5072534;28;20503;-78
2023/01/27 01:29:47;;;;;;;0.10;0.10;;;;;;;;;;5073066;28;20023;-80
2023/01/27 01:32:12;;;;;;;0.10;0.10;;;;;;;;;;5055057;28;20166;-79
2023/01/27 01:34:37;;;;;;;0.10;0.10;;;;;;;;;;5073013;28;20115;-79
2023/01/27 01:37:03;;;;;;;0.00;0.00;;;;;;;;;;5072742;28;20046;-78
2023/01/27 01:39:29;;;;;;;0.10;0.10;;;;;;;;;;5055249;28;20025;-80
2023/01/27 01:41:54;;;;;;;0.40;0.40;;;;;;;;;;5072274;28;20511;-80
2023/01/27 01:44:24;;;;;;;0.08;0.08;;;;;;;;;;5072768;28;20027;-79
2023/01/27 01:46:50;;;;;;;0.10;0.10;;;;;;;;;;5072884;28;20020;-79
2023/01/27 01:49:17;;;;;;;1.70;1.60;;;;;;;;;;5072774;28;20472;-80
2023/01/27 01:51:44;;;;;;;0.10;0.10;;;;;;;;;;5054701;28;20016;-78
2023/01/27 01:54:36;;;;;;;0.10;0.10;;;;;;;;;;5054829;28;20479;-77
2023/01/27 01:57:04;;;;;;;0.10;0.10;;;;;;;;;;5050592;28;20048;-77
2023/01/27 01:59:32;;;;;;;0.10;0.10;;;;;;;;;;5058661;28;20028;-76
2023/01/27 02:02:00;;;;;;;0.10;0.10;;;;;;;;;;5076725;28;20024;-76
2023/01/27 02:04:28;;;;;;;0.10;0.10;;;;;;;;;;5076266;28;20032;-77
2023/01/27 02:06:57;;;;;;;1.35;1.17;;;;;;;;;;5076501;28;20058;-76
2023/01/27 02:09:23;;;;;;;3.83;0.90;;;;;;;;;;5075829;28;20024;-77
2023/01/27 02:11:49;;;;;;;0.75;0.75;;;;;;;;;;5076391;28;20035;-76
2023/01/27 02:14:15;;;;;;;0.20;0.20;;;;;;;;;;5076417;28;20074;-83
2023/01/27 02:16:40;;;;;;;0.10;0.10;;;;;;;;;;5076478;28;20032;-79
2023/01/27 02:19:08;;;;;;;0.10;0.10;;;;;;;;;;5058444;28;20392;-78
2023/01/27 02:21:34;;;;;;;0.10;0.10;;;;;;;;;;5058504;28;20036;-80
2023/01/27 02:24:00;;;;;;;0.10;0.10;;;;;;;;;;5054731;28;20410;-80
2023/01/27 02:26:28;;;;;;;0.30;0.30;;;;;;;;;;5055463;28;20503;-78
2023/01/27 02:28:55;;;;;;;0.10;0.10;;;;;;;;;;5055949;28;20495;-78
2023/01/27 02:31:21;;;;;;;0.68;0.68;;;;;;;;;;5054753;28;20040;-78
2023/01/27 02:33:46;;;;;;;0.28;0.28;;;;;;;;;;5055861;28;20029;-78
2023/01/27 02:36:13;;;;;;;1.17;1.17;;;;;;;;;;5054833;28;20382;-78
2023/01/27 02:38:42;;;;;;;0.17;0.17;;;;;;;;;;5054810;28;20454;-78
2023/01/27 02:41:23;;;;;;;0.00;0.00;;;;;;;;;;5053893;28;20037;-78
2023/01/27 02:43:49;;;;;;;0.10;0.10;;;;;;;;;;5054126;28;20025;-78
2023/01/27 02:46:16;;;;;;;0.10;0.10;;;;;;;;;;5054647;28;20110;-83
2023/01/27 02:48:41;;;;;;;0.10;0.10;;;;;;;;;;5055944;28;20021;-83
2023/01/27 02:51:07;;;;;;;1.45;1.45;;;;;;;;;;5054490;28;20068;-79
2023/01/27 02:53:36;;;;;;;0.00;0.00;;;;;;;;;;5054560;28;20036;-78
2023/01/27 02:56:01;;;;;;;0.00;0.00;;;;;;;;;;5055586;28;20059;-78
2023/01/27 02:58:27;;;;;;;0.10;0.10;;;;;;;;;;5054091;28;20032;-79
2023/01/27 03:00:57;;;;;;;0.10;0.10;;;;;;;;;;5054356;28;20040;-80
2023/01/27 03:03:23;;;;;;;0.10;0.10;;;;;;;;;;5054030;28;20120;-79
2023/01/27 03:05:50;;;;;;;0.00;0.00;;;;;;;;;;5043269;28;20171;-82
2023/01/27 03:08:16;;;;;;;0.00;0.00;;;;;;;;;;5053814;28;20059;-79
2023/01/27 03:10:41;;;;;;;0.35;0.35;;;;;;;;;;5054128;28;20075;-80
2023/01/27 03:13:07;;;;;;;0.45;0.45;;;;;;;;;;5053877;28;20384;-79
2023/01/27 03:18:17;;;;;;;0.10;0.10;;;;;;;;;;5055392;28;20037;-78
2023/01/27 03:20:43;;;;;;;0.10;0.10;;;;;;;;;;5054015;28;20167;-78
2023/01/27 03:23:09;;;;;;;0.00;0.00;;;;;;;;;;5060568;28;20049;-77
2023/01/27 03:25:35;;;;;;;0.10;0.10;;;;;;;;;;5051530;28;20116;-77
2023/01/27 03:28:01;;;;;;;0.30;0.30;;;;;;;;;;5052769;28;20127;-77
2023/01/27 03:30:41;;;;;;;0.25;0.25;;;;;;;;;;5056103;28;20123;-78
2023/01/27 03:33:13;;;;;;;0.10;0.10;;;;;;;;;;5056890;28;20025;-78
2023/01/27 03:46:58;;;;;;;0.10;0.10;;;;;;;;;;5074571;28;20549;-79
2023/01/27 03:49:23;;;;;;;0.10;0.10;;;;;;;;;;5074974;28;20028;-78
2023/01/27 03:51:49;;;;;;;0.10;0.10;;;;;;;;;;5073824;28;20079;-80
2023/01/27 03:54:14;;;;;;;0.15;0.15;;;;;;;;;;5056667;28;20021;-81
2023/01/27 03:56:40;;;;;;;0.63;0.63;;;;;;;;;;5074430;28;20048;-81
2023/01/27 03:59:05;;;;;;;0.10;0.10;;;;;;;;;;5074159;28;20029;-80
2023/01/27 04:01:30;;;;;;;0.00;0.00;;;;;;;;;;5073874;28;20099;-82
2023/01/27 04:06:53;;;;;;;0.15;0.15;;;;;;;;;;5070550;28;20068;-79
2023/01/27 04:09:19;;;;;;;0.20;0.20;;;;;;;;;;5069877;28;20024;-77
2023/01/27 04:11:54;;;;;;;0.10;0.10;;;;;;;;;;5069919;28;20101;-76
2023/01/27 04:14:20;;;;;;;0.10;0.10;;;;;;;;;;5052460;28;20024;-77
2023/01/27 04:16:46;;;;;;;0.85;0.68;;;;;;;;;;5070563;28;20058;-78
2023/01/27 04:19:12;;;;;;;0.20;0.20;;;;;;;;;;5069954;28;20017;-77
2023/01/27 04:21:37;;;;;;;0.00;0.00;;;;;;;;;;5069531;28;20468;-78
2023/01/27 04:24:03;;;;;;;0.10;0.10;;;;;;;;;;5047917;28;20052;-80
2023/01/27 04:26:33;;;;;;;0.10;0.10;;;;;;;;;;5048900;28;20080;-80
2023/01/27 04:28:59;;;;;;;0.52;0.52;;;;;;;;;;5050158;28;20021;-80
2023/01/27 04:31:24;;;;;;;0.03;0.03;;;;;;;;;;5047387;28;20476;-80
2023/01/27 04:33:50;;;;;;;16.98;9.43;;;;;;;;;;5040740;28;20037;-81
2023/01/27 04:36:15;;;;;;;0.20;0.20;;;;;;;;;;5034209;28;20025;-80
2023/01/27 04:38:41;;;;;;;1.42;1.33;;;;;;;;;;5050004;28;20029;-80
2023/01/27 04:41:06;;;;;;;0.10;0.10;;;;;;;;;;5049520;28;20032;-80
2023/01/27 04:43:32;;;;;;;0.10;0.10;;;;;;;;;;5049626;28;20384;-79
2023/01/27 04:45:57;;;;;;;0.10;0.10;;;;;;;;;;5045775;28;20385;-79
2023/01/27 04:48:22;;;;;;;0.20;0.20;;;;;;;;;;5050010;28;20075;-81
2023/01/27 04:50:48;;;;;;;0.03;0.03;;;;;;;;;;5048472;28;20033;-81
2023/01/27 04:53:13;;;;;;;0.10;0.10;;;;;;;;;;5049682;28;20025;-82
2023/01/27 04:55:40;;;;;;;0.10;0.10;;;;;;;;;;5048948;28;20524;-81
2023/01/27 04:58:05;;;;;;;0.10;0.10;;;;;;;;;;5049770;28;20028;-81
2023/01/27 05:00:31;;;;;;;0.10;0.10;;;;;;;;;;5048728;28;20037;-77
2023/01/27 05:02:56;;;;;;;0.10;0.10;;;;;;;;;;5042351;28;20100;-79
2023/01/27 05:05:21;;;;;;;0.10;0.10;;;;;;;;;;5049842;28;20037;-83
2023/01/27 05:07:47;;;;;;;0.10;0.10;;;;;;;;;;5050065;28;20449;-84
2023/01/27 05:10:12;;;;;;;0.00;0.00;;;;;;;;;;5048459;28;20028;-82
2023/01/27 05:12:38;;;;;;;0.05;0.05;;;;;;;;;;5049809;28;20013;-83
2023/01/27 05:15:03;;;;;;;0.00;0.00;;;;;;;;;;5048430;28;20035;-83
2023/01/27 05:17:32;;;;;;;0.10;0.10;;;;;;;;;;5049727;28;20077;-83
2023/01/27 05:19:58;;;;;;;0.43;0.43;;;;;;;;;;5049406;28;20037;-82
2023/01/27 05:22:23;;;;;;;0.77;0.77;;;;;;;;;;5045469;28;20079;-81
2023/01/27 05:24:49;;;;;;;0.00;0.00;;;;;;;;;;5068762;28;20025;-82
2023/01/27 05:27:15;;;;;;;0.10;0.10;;;;;;;;;;5069127;28;20379;-79
2023/01/27 05:29:40;;;;;;;0.10;0.10;;;;;;;;;;5051351;28;20090;-78
2023/01/27 05:32:06;;;;;;;0.20;0.20;;;;;;;;;;5070108;28;20036;-78
2023/01/27 05:34:31;;;;;;;0.10;0.10;;;;;;;;;;5073423;28;20025;-79
2023/01/27 05:36:56;;;;;;;0.10;0.10;;;;;;;;;;5072446;28;20126;-79
2023/01/27 05:39:22;;;;;;;0.30;0.30;;;;;;;;;;5072722;28;20073;-80
2023/01/27 05:41:47;;;;;;;0.10;0.10;;;;;;;;;;5072279;28;20025;-79
2023/01/27 05:44:13;;;;;;;1.17;1.17;;;;;;;;;;5073166;28;20017;-80
2023/01/27 05:46:39;;;;;;;0.10;0.10;;;;;;;;;;5071528;28;20387;-80
2023/01/27 05:49:04;;;;;;;0.10;0.10;;;;;;;;;;5054807;28;20025;-79
2023/01/27 05:51:31;;;;;;;0.10;0.10;;;;;;;;;;5055326;28;20033;-79
2023/01/27 05:53:57;;;;;;;0.10;0.10;;;;;;;;;;5053356;28;20476;-82
2023/01/27 05:56:22;;;;;;;0.10;0.10;;;;;;;;;;5065452;28;20031;-83
2023/01/27 05:58:47;;;;;;;0.10;0.10;;;;;;;;;;5072762;28;20036;-82
2023/01/27 06:01:14;;;;;;;0.10;0.10;;;;;;;;;;5053591;28;20046;-81
2023/01/27 06:03:40;;;;;;;0.10;0.10;;;;;;;;;;5053332;28;20032;-78
2023/01/27 06:06:06;;;;;;;0.00;0.00;;;;;;;;;;5069211;28;20036;-77
2023/01/27 06:08:32;;;;;;;0.10;0.10;;;;;;;;;;5060870;28;20031;-81
2023/01/27 06:10:58;;;;;;;0.63;0.40;;;;;;;;;;5069656;28;20020;-82
2023/01/27 06:13:23;;;;;;;0.63;0.63;;;;;;;;;;5070395;28;20036;-81
2023/01/27 06:15:49;;;;;;;0.20;0.20;;;;;;;;;;5070071;28;20027;-82
2023/01/27 06:18:15;;;;;;;0.30;0.30;;;;;;;;;;5070106;28;20108;-81
2023/01/27 06:20:41;;;;;;;0.10;0.10;;;;;;;;;;5068254;28;20094;-79
2023/01/27 06:23:07;;;;;;;0.28;0.28;;;;;;;;;;5049414;28;20052;-82
2023/01/27 06:25:36;;;;;;;0.10;0.10;;;;;;;;;;5061640;28;20068;-84
2023/01/27 06:28:02;;;;;;;0.52;0.52;;;;;;;;;;5059343;28;20021;-82
2023/01/27 06:30:27;;;;;;;0.20;0.20;;;;;;;;;;5063953;28;20029;-80
2023/01/27 06:32:52;;;;;;;0.10;0.10;;;;;;;;;;5058807;28;20032;-80
2023/01/27 06:35:18;;;;;;;0.77;0.70;;;;;;;;;;5069912;28;20052;-80
2023/01/27 06:37:43;;;;;;;0.47;0.47;;;;;;;;;;5071862;28;20028;-80
2023/01/27 06:40:10;;;;;;;9.23;0.75;;;;;;;;;;5072081;28;20097;-80
2023/01/27 06:42:35;;;;;;;3.97;3.63;;;;;;;;;;5070659;28;20549;-82
2023/01/27 06:45:01;;;;;;;0.10;0.10;;;;;;;;;;5053585;28;20045;-83
2023/01/27 06:47:26;;;;;;;0.20;0.20;;;;;;;;;;5071933;28;20025;-81
2023/01/27 06:49:51;;;;;;;0.40;0.40;;;;;;;;;;5053405;28;20039;-79
2023/01/27 06:52:17;;;;;;;3.13;2.92;;;;;;;;;;5071901;28;20040;-82
2023/01/27 06:54:42;;;;;;;0.20;0.20;;;;;;;;;;5054193;28;20029;-82
2023/01/27 06:57:08;;;;;;;0.20;0.20;;;;;;;;;;5071963;28;20468;-85
2023/01/27 06:59:33;;;;;;;0.00;0.00;;;;;;;;;;5071513;28;20097;-83
2023/01/27 07:01:59;;;;;;;0.10;0.10;;;;;;;;;;5071185;28;20082;-80
2023/01/27 07:04:24;;;;;;;0.10;0.10;;;;;;;;;;5063805;28;20055;-79
2023/01/27 07:06:50;;;;;;;0.90;0.75;;;;;;;;;;5054853;28;20032;-80
2023/01/27 07:09:15;;;;;;;2.28;0.55;;;;;;;;;;5049033;28;20476;-77
2023/01/27 07:11:40;;;;;;;1.55;0.95;;;;;;;;;;5066966;28;20101;-80
2023/01/27 07:14:06;;;;;;;0.50;0.50;;;;;;;;;;5071360;28;20037;-82
2023/01/27 07:16:31;;;;;;;0.10;0.10;;;;;;;;;;5053657;28;20090;-82
2023/01/27 07:18:57;;;;;;;0.10;0.10;;;;;;;;;;5071321;28;20071;-82
2023/01/27 07:21:23;;;;;;;0.40;0.40;;;;;;;;;;5071246;28;20016;-83
2023/01/27 07:23:48;;;;;;;0.55;0.55;;;;;;;;;;5069176;28;20048;-80
2023/01/27 07:26:14;;;;;;;0.82;0.60;;;;;;;;;;5070625;28;20471;-80
2023/01/27 07:28:39;;;;;;;0.10;0.10;;;;;;;;;;5071066;28;20029;-69
2023/01/27 07:31:05;;;;;;;0.40;0.40;;;;;;;;;;5057114;28;20029;-66
2023/01/27 07:33:30;;;;;;;0.00;0.00;;;;;;;;;;5044517;28;20178;-66
2023/01/27 07:35:56;;;;;;;0.20;0.20;;;;;;;;;;5048049;28;20025;-69
2023/01/27 07:38:21;;;;;;;0.10;0.10;;;;;;;;;;5049048;28;20047;-67
2023/01/27 07:40:46;;;;;;;2.20;2.05;;;;;;;;;;5049156;28;20399;-68
2023/01/27 07:43:12;;;;;;;0.10;0.10;;;;;;;;;;5031337;28;20773;-67
2023/01/27 07:45:39;;;;;;;1.02;0.93;;;;;;;;;;5031246;28;20087;-65
2023/01/27 07:48:05;;;;;;;0.10;0.10;;;;;;;;;;5048801;28;20037;-69
2023/01/27 07:50:31;;;;;;;0.10;0.10;;;;;;;;;;5032092;28;20040;-68
2023/01/27 07:53:00;;;;;;;1.10;1.00;;;;;;;;;;5050094;28;20475;-66
2023/01/27 07:55:26;;;;;;;0.20;0.20;;;;;;;;;;5015412;28;20047;-67
2023/01/27 07:57:52;;;;;;;0.10;0.10;;;;;;;;;;5015816;28;20480;-68
2023/01/27 08:00:20;;;;;;;1.50;1.40;;;;;;;;;;5016409;28;20040;-69
2023/01/27 08:02:52;;;;;;;1.85;1.75;;;;;;;;;;5000504;28;20083;-67
2023/01/27 08:05:19;;;;;;;0.40;0.40;;;;;;;;;;5016194;28;20124;-65
2023/01/27 08:07:45;;;;;;;0.65;0.60;;;;;;;;;;5049919;28;20029;-65
2023/01/27 08:10:10;;;;;;;1.50;1.40;;;;;;;;;;5032030;28;20048;-66
2023/01/27 08:12:36;;;;;;;6.13;1.38;;;;;;;;;;5050252;28;20416;-66
2023/01/27 08:15:01;;;;;;;2.78;2.58;;;;;;;;;;5050279;28;20029;-68
2023/01/27 08:17:26;;;;;;;0.13;0.13;;;;;;;;;;5038422;28;20070;-67
2023/01/27 08:19:52;;;;;;;0.20;0.20;;;;;;;;;;5070082;28;20024;-69
2023/01/27 08:22:20;;;;;;;4.30;3.92;;;;;;;;;;5068790;28;20020;-66
2023/01/27 08:24:46;;;;;;;0.45;0.45;;;;;;;;;;5033557;28;20056;-70
2023/01/27 08:27:11;;;;;;;0.52;0.52;;;;;;;;;;5035280;28;20032;-66
2023/01/27 08:29:36;;;;;;;0.10;0.10;;;;;;;;;;5070166;28;20376;-66
2023/01/27 08:32:02;;;;;;;0.20;0.20;;;;;;;;;;5068033;28;20345;-67
2023/01/27 08:34:27;;;;;;;0.52;0.52;;;;;;;;;;5067815;28;20281;-66
2023/01/27 08:36:53;;;;;;;0.10;0.10;;;;;;;;;;5067754;28;20422;-67
2023/01/27 08:39:18;;;;;;;0.20;0.20;;;;;;;;;;5035656;28;20095;-67
2023/01/27 08:41:44;;;;;;;0.20;0.20;;;;;;;;;;5057805;28;20085;-67
2023/01/27 08:44:09;;;;;;;0.10;0.10;;;;;;;;;;5067862;28;20021;-71
2023/01/27 08:46:34;;;;;;;0.28;0.28;;;;;;;;;;5068205;28;20396;-67
2023/01/27 08:49:00;;;;;;;0.20;0.20;;;;;;;;;;5069374;28;20154;-67
2023/01/27 08:51:25;;;;;;;0.10;0.10;;;;;;;;;;5060697;28;20104;-68
2023/01/27 08:53:51;;;;;;;0.10;0.10;;;;;;;;;;5032777;28;20029;-67
2023/01/27 08:56:16;;;;;;;0.20;0.20;;;;;;;;;;5049680;28;20170;-68
2023/01/27 08:58:42;;;;;;;0.10;0.10;;;;;;;;;;5053923;28;20017;-68
2023/01/27 09:01:07;;;;;;;0.75;0.63;;;;;;;;;;5049571;28;20463;-68
2023/01/27 09:03:33;;;;;;;0.13;0.13;;;;;;;;;;5064687;28;20025;-70
2023/01/27 09:05:59;;;;;;;1.55;1.45;;;;;;;;;;5040142;28;20058;-67
2023/01/27 09:08:25;;;;;;;0.13;0.13;;;;;;;;;;5036028;28;20037;-67
2023/01/27 09:10:50;;;;;;;0.10;0.10;;;;;;;;;;5047172;28;20036;-69
2023/01/27 09:13:17;;;;;;;0.20;0.20;;;;;;;;;;5047243;28;20024;-68
2023/01/27 09:15:42;;;;;;;0.30;0.30;;;;;;;;;;5012231;28;20082;-69
2023/01/27 09:18:08;;;;;;;0.30;0.30;;;;;;;;;;5029094;28;20033;-70
2023/01/27 09:20:35;;;;;;;3.63;0.95;;;;;;;;;;5029509;28;20036;-68
2023/01/27 09:23:01;;;;;;;1.00;1.00;;;;;;;;;;5028807;28;20569;-68
2023/01/27 09:25:26;;;;;;;0.10;0.10;;;;;;;;;;5047393;28;20041;-68
2023/01/27 09:27:56;;;;;;;0.55;0.40;;;;;;;;;;5062533;28;20059;-68
2023/01/27 09:30:22;;;;;;;3.22;1.67;;;;;;;;;;5060653;28;20454;-69
2023/01/27 09:32:48;;;;;;;0.10;0.10;;;;;;;;;;5054387;28;20033;-70
2023/01/27 09:35:14;;;;;;;0.10;0.10;;;;;;;;;;5067253;28;20051;-68
2023/01/27 09:37:45;;;;;;;0.20;0.20;;;;;;;;;;5032421;28;20033;-70
2023/01/27 09:40:16;;;;;;;0.20;0.20;;;;;;;;;;5066691;28;20060;-69
2023/01/27 09:42:42;;;;;;;0.30;0.30;;;;;;;;;;5067030;28;20036;-68
2023/01/27 09:45:13;;;;;;;0.25;0.25;;;;;;;;;;5065698;28;20033;-67
2023/01/27 09:47:48;;;;;;;0.57;0.57;;;;;;;;;;5066830;28;20128;-68
2023/01/27 09:50:32;;;;;;;0.22;0.22;;;;;;;;;;5066647;28;20134;-67
2023/01/27 09:53:13;;;;;;;0.20;0.20;;;;;;;;;;5066867;28;20499;-68
2023/01/27 09:55:41;;;;;;;0.65;0.52;;;;;;;;;;5066786;28;20033;-68
2023/01/27 09:58:18;;;;;;;1.35;1.10;;;;;;;;;;5066876;28;20032;-69
2023/01/27 10:00:51;;;;;;;0.90;0.90;;;;;;;;;;5066951;28;20020;-69
2023/01/27 10:03:42;;;;;;;7.82;3.03;;;;;;;;;;5066336;28;20120;-68
2023/01/27 10:06:37;;;;;;;0.45;0.45;;;;;;;;;;5066830;28;20028;-69
2023/01/27 10:09:21;;;;;;;2.38;1.27;;;;;;;;;;5027948;28;20040;-67
2023/01/27 10:11:46;;;;;;;1.45;0.85;;;;;;;;;;5041884;28;20490;-70
2023/01/27 10:14:11;;;;;;;1.25;0.75;;;;;;;;;;5053791;28;20037;-68
2023/01/27 10:16:45;;;;;;;0.17;0.17;;;;;;;;;;5047149;28;20025;-68
2023/01/27 10:19:11;;;;;;;1.15;0.82;;;;;;;;;;5036902;28;20492;-68
2023/01/27 10:21:36;;;;;;;0.10;0.10;;;;;;;;;;5042762;28;20047;-69
2023/01/27 10:24:08;;;;;;;0.10;0.10;;;;;;;;;;5058425;28;20488;-68
2023/01/27 10:26:48;;;;;;;0.70;0.50;;;;;;;;;;5061598;28;20051;-68
2023/01/27 10:29:17;;;;;;;0.40;0.40;;;;;;;;;;5033552;28;20036;-72
2023/01/27 10:31:52;;;;;;;0.75;0.60;;;;;;;;;;5050845;28;20098;-67
2023/01/27 10:34:24;;;;;;;0.20;0.20;;;;;;;;;;5032187;28;20033;-70
2023/01/27 10:36:59;;;;;;;0.52;0.52;;;;;;;;;;5020265;28;20111;-69
2023/01/27 10:39:30;;;;;;;0.17;0.15;;;;;;;;;;5059493;28;20082;-67
2023/01/27 10:41:56;;;;;;;0.82;0.82;;;;;;;;;;5049625;28;20466;-69
2023/01/27 10:44:33;;;;;;;2.47;1.00;;;;;;;;;;5051834;28;20033;-67
2023/01/27 10:46:59;;;;;;;1.10;1.10;;;;;;;;;;5067933;28;20051;-67
2023/01/27 10:49:28;;;;;;;0.52;0.52;;;;;;;;;;5069673;28;20032;-68
2023/01/27 10:51:56;;;;;;;0.30;0.30;;;;;;;;;;5069207;28;20029;-70
2023/01/27 10:54:34;;;;;;;0.13;0.13;;;;;;;;;;5051198;28;20037;-70
2023/01/27 10:57:01;;;;;;;0.63;0.63;;;;;;;;;;5067964;28;20029;-68
2023/01/27 10:59:39;;;;;;;0.20;0.20;;;;;;;;;;5032401;28;20047;-71
2023/01/27 11:02:04;;;;;;;0.10;0.10;;;;;;;;;;5068893;28;20106;-69
2023/01/27 11:04:39;;;;;;;0.45;0.40;;;;;;;;;;5069623;28;20055;-69
2023/01/27 11:07:05;;;;;;;1.75;0.90;;;;;;;;;;5068076;28;20071;-69
2023/01/27 11:09:33;;;;;;;0.45;0.38;;;;;;;;;;5051475;28;20127;-68
2023/01/27 11:12:00;;;;;;;0.10;0.10;;;;;;;;;;5069237;28;20616;-68
2023/01/27 11:14:30;;;;;;;0.10;0.10;;;;;;;;;;5030224;28;20031;-68
2023/01/27 11:17:16;;;;;;;1.23;1.05;;;;;;;;;;5027936;28;20089;-69
2023/01/27 11:19:59;;;;;;;0.50;0.50;;;;;;;;;;5052802;28;20052;-71
2023/01/27 11:22:34;;;;;;;1.10;0.68;;;;;;;;;;5069030;28;20028;-69
2023/01/27 11:25:18;;;;;;;1.35;0.90;;;;;;;;;;5068911;28;20060;-68
2023/01/27 11:28:01;;;;;;;1.60;1.40;;;;;;;;;;5068634;28;20043;-68
2023/01/27 11:30:32;;;;;;;0.73;0.50;;;;;;;;;;5069046;28;20563;-68
2023/01/27 11:33:03;;;;;;;0.32;0.32;;;;;;;;;;5068885;28;20430;-69
2023/01/27 11:35:29;;;;;;;2.33;1.25;;;;;;;;;;5068947;28;20122;-67
2023/01/27 11:37:54;;;;;;;0.80;0.63;;;;;;;;;;5068754;28;20552;-72
2023/01/27 11:40:26;;;;;;;0.30;0.30;;;;;;;;;;5068528;28;20426;-69
2023/01/27 11:42:51;;;;;;;0.45;0.45;;;;;;;;;;5068865;28;20038;-68
2023/01/27 11:45:18;;;;;;;0.10;0.10;;;;;;;;;;5069012;28;20388;-71
2023/01/27 11:47:45;;;;;;;1.10;0.77;;;;;;;;;;5061764;28;20029;-68
2023/01/27 11:50:19;;;;;;;0.60;0.47;;;;;;;;;;5067462;28;20059;-68
2023/01/27 11:52:46;;;;;;;2.25;1.00;;;;;;;;;;5058910;28;20025;-70
2023/01/27 11:55:19;;;;;;;1.05;0.82;;;;;;;;;;5069044;28;20055;-69
2023/01/27 11:57:50;;;;;;;0.70;0.45;;;;;;;;;;5031526;28;20211;-68
2023/01/27 12:00:27;;;;;;;0.10;0.10;;;;;;;;;;5067574;28;20054;-68
2023/01/27 12:03:05;;;;;;;1.33;0.90;;;;;;;;;;5047773;28;20491;-68
2023/01/27 12:05:32;;;;;;;3.88;3.30;;;;;;;;;;5064189;28;20419;-70
2023/01/27 12:07:59;;;;;;;0.10;0.10;;;;;;;;;;5066032;28;20032;-68
2023/01/27 12:10:35;;;;;;;0.10;0.10;;;;;;;;;;5066527;28;20492;-69
2023/01/27 12:13:07;;;;;;;1.65;0.93;;;;;;;;;;5066496;28;20128;-67
2023/01/27 12:15:34;;;;;;;0.75;0.73;;;;;;;;;;5065707;28;20024;-70
2023/01/27 12:18:01;;;;;;;1.70;1.60;;;;;;;;;;5064751;28;20117;-67
2023/01/27 12:20:31;;;;;;;1.13;0.85;;;;;;;;;;5065031;28;20020;-68
2023/01/27 12:23:02;;;;;;;0.40;0.35;;;;;;;;;;5065081;28;20044;-69
2023/01/27 12:25:31;;;;;;;2.60;1.98;;;;;;;;;;5067636;28;20102;-69
2023/01/27 12:28:01;;;;;;;0.80;0.30;;;;;;;;;;5067331;28;20116;-69
2023/01/27 12:30:30;;;;;;;0.30;0.30;;;;;;;;;;5047527;28;20049;-69
2023/01/27 12:32:56;;;;;;;0.60;0.60;;;;;;;;;;5052467;28;20041;-67
2023/01/27 12:35:29;;;;;;;0.35;0.30;;;;;;;;;;5045746;28;20036;-68
2023/01/27 12:37:57;;;;;;;0.30;0.30;;;;;;;;;;5032871;28;20048;-67
2023/01/27 12:40:24;;;;;;;0.38;0.38;;;;;;;;;;5053230;28;20140;-68
2023/01/27 12:42:58;;;;;;;1.67;1.00;;;;;;;;;;5054127;28;20053;-67
2023/01/27 12:45:25;;;;;;;0.22;0.22;;;;;;;;;;5067659;28;20605;-69
2023/01/27 12:47:54;;;;;;;0.10;0.10;;;;;;;;;;5049285;28;20492;-67
2023/01/27 12:50:20;;;;;;;0.20;0.20;;;;;;;;;;5066932;28;20082;-67
2023/01/27 12:52:53;;;;;;;9.73;8.88;;;;;;;;;;5047990;28;20032;-68
2023/01/27 12:55:29;;;;;;;0.52;0.43;;;;;;;;;;5058759;28;20032;-68
2023/01/27 12:57:54;;;;;;;4.45;1.92;;;;;;;;;;5066161;28;20050;-68
2023/01/27 13:00:20;;;;;;;0.10;0.10;;;;;;;;;;5066192;28;20032;-68
2023/01/27 13:02:47;;;;;;;0.25;0.25;;;;;;;;;;5065733;28;20099;-68
2023/01/27 13:05:14;;;;;;;0.32;0.32;;;;;;;;;;5065973;28;20051;-70
2023/01/27 13:07:47;;;;;;;0.55;0.47;;;;;;;;;;5065346;28;20024;-71
2023/01/27 13:10:23;;;;;;;1.90;0.85;;;;;;;;;;5065800;28;20535;-68
2023/01/27 13:12:53;;;;;;;0.63;0.52;;;;;;;;;;5065436;28;20479;-68
2023/01/27 13:15:27;;;;;;;0.35;0.35;;;;;;;;;;5066443;28;20036;-68
2023/01/27 13:17:59;;;;;;;0.68;0.43;;;;;;;;;;5049458;28;20021;-70
2023/01/27 13:20:34;;;;;;;2.72;1.55;;;;;;;;;;5069282;28;20440;-68
2023/01/27 13:22:59;;;;;;;0.15;0.13;;;;;;;;;;5050874;28;20052;-67
2023/01/27 13:25:48;;;;;;;0.35;0.35;;;;;;;;;;5069730;28;20028;-66
2023/01/27 13:28:21;;;;;;;0.28;0.28;;;;;;;;;;5063277;28;20040;-67
2023/01/27 13:30:49;;;;;;;2.85;1.00;;;;;;;;;;5066204;28;20341;-68
2023/01/27 13:33:33;;;;;;;2.63;2.47;;;;;;;;;;5067401;28;20032;-67
2023/01/27 13:36:03;;;;;;;1.30;1.02;;;;;;;;;;5068294;28;20069;-67
2023/01/27 13:38:48;;;;;;;0.10;0.10;;;;;;;;;;5069023;28;20036;-66
2023/01/27 13:41:19;;;;;;;0.10;0.10;;;;;;;;;;5068903;28;20040;-67
2023/01/27 13:43:49;;;;;;;0.32;0.32;;;;;;;;;;5068983;28;20028;-67
2023/01/27 13:46:20;;;;;;;0.68;0.68;;;;;;;;;;5069010;28;20033;-67
2023/01/27 13:49:12;;;;;;;0.57;0.57;;;;;;;;;;5051271;28;20036;-69
2023/01/27 13:51:37;;;;;;;0.80;0.77;;;;;;;;;;5044289;28;20382;-68
2023/01/27 13:54:03;;;;;;;0.30;0.30;;;;;;;;;;5068667;28;20037;-67
2023/01/27 13:56:58;;;;;;;0.10;0.10;;;;;;;;;;5070741;28;20341;-67
2023/01/27 13:59:42;;;;;;;0.30;0.30;;;;;;;;;;5057749;28;20052;-67
2023/01/27 14:02:19;;;;;;;0.10;0.10;;;;;;;;;;5070496;28;20115;-67
2023/01/27 14:05:03;;;;;;;1.13;1.05;;;;;;;;;;5052749;28;20030;-67
2023/01/27 14:07:41;;;;;;;0.43;0.40;;;;;;;;;;5072070;28;20035;-66
2023/01/27 14:10:21;;;;;;;0.10;0.10;;;;;;;;;;5072780;28;20024;-66
2023/01/27 14:12:46;;;;;;;0.30;0.30;;;;;;;;;;5073035;28;20033;-69
2023/01/27 14:15:31;;;;;;;0.77;0.55;;;;;;;;;;5069651;28;20032;-66
2023/01/27 14:18:04;;;;;;;1.23;1.13;;;;;;;;;;5070981;28;20116;-66
2023/01/27 14:20:29;;;;;;;0.20;0.20;;;;;;;;;;5072708;28;20028;-65
2023/01/27 14:23:13;;;;;;;0.20;0.20;;;;;;;;;;5072099;28;20037;-66
2023/01/27 14:25:38;;;;;;;0.50;0.43;;;;;;;;;;5072335;28;20060;-66
2023/01/27 14:28:03;;;;;;;0.10;0.10;;;;;;;;;;5071636;28;20056;-68
2023/01/27 14:30:35;;;;;;;0.25;0.25;;;;;;;;;;5053366;28;20051;-66
2023/01/27 14:33:13;;;;;;;1.17;0.68;;;;;;;;;;5058495;28;20108;-66
2023/01/27 14:35:52;;;;;;;0.20;0.20;;;;;;;;;;5034065;28;20039;-66
2023/01/27 14:38:22;;;;;;;0.10;0.10;;;;;;;;;;5053403;28;20025;-65
2023/01/27 14:41:07;;;;;;;0.20;0.20;;;;;;;;;;5052866;28;20031;-69
2023/01/27 14:43:35;;;;;;;0.17;0.17;;;;;;;;;;5034217;28;20031;-70
2023/01/27 14:46:03;;;;;;;0.82;0.82;;;;;;;;;;5069390;28;20147;-68
2023/01/27 14:48:28;;;;;;;1.65;1.45;;;;;;;;;;5070034;28;20021;-68
2023/01/27 14:51:14;;;;;;;0.10;0.10;;;;;;;;;;5071150;28;20468;-67
2023/01/27 14:53:45;;;;;;;0.10;0.10;;;;;;;;;;5069293;28;20495;-67
2023/01/27 14:56:15;;;;;;;4.20;1.95;;;;;;;;;;5035542;28;20384;-67
2023/01/27 14:58:46;;;;;;;0.32;0.32;;;;;;;;;;5035272;28;20029;-67
2023/01/27 15:01:16;;;;;;;0.10;0.10;;;;;;;;;;5069853;28;20391;-68
2023/01/27 15:04:04;;;;;;;0.20;0.20;;;;;;;;;;5068268;28;20691;-69
2023/01/27 15:06:48;;;;;;;0.20;0.20;;;;;;;;;;5069320;28;20055;-67
2023/01/27 15:09:13;;;;;;;0.10;0.10;;;;;;;;;;5070437;28;20033;-67
2023/01/27 15:11:58;;;;;;;0.17;0.17;;;;;;;;;;5071242;28;20415;-70
2023/01/27 15:14:41;;;;;;;1.55;0.63;;;;;;;;;;5072137;28;20063;-68
2023/01/27 15:17:13;;;;;;;2.28;2.05;;;;;;;;;;5036696;28;20379;-66